ADDS METAR Data INFO
IDs: Format: Raw Decoded Include TAF

Data at: 0308 UTC 16 Aug 2018

PAGN 160256Z AUTO 23004KT 10SM OVC065 13/10 A3010 RMK AO2 SLP182 T01280100 56006
PAGN 160156Z AUTO 00000KT 10SM OVC065 14/09 A3010 RMK AO2 SLP183 T01390094
PAGN 160056Z AUTO 00000KT 10SM OVC070 14/09 A3011 RMK AO2 SLP185 T01390094
PAGN 152356Z AUTO 23003KT 10SM OVC070 14/08 A3012 RMK AO2 SLP188 T01440078 10156 20128 57004
PAGN 152256Z AUTO 00000KT 10SM OVC065 14/08 A3012 RMK AO2 SLP190 T01440083
PAGN 152156Z AUTO 00000KT 10SM CLR 15/08 A3013 RMK AO2 SLP191 T01500078
PAGN 152056Z AUTO 00000KT 10SM BKN065 15/09 A3013 RMK AO2 SLP192 T01500094 51002
PAGN 151956Z AUTO 00000KT 10SM OVC065 15/08 A3013 RMK AO2 SLP192 T01500078
PAGN 151856Z AUTO 00000KT 10SM OVC065 14/09 A3013 RMK AO2 SLP191 T01390094
PAGN 151756Z AUTO 00000KT 10SM OVC065 13/10 A3013 RMK AO2 SLP191 T01280100 10128 20094 51008
PAGN 151656Z AUTO 00000KT 10SM OVC065 12/09 A3012 RMK AO2 SLP189 T01220094
PAGN 151556Z AUTO 00000KT 10SM OVC065 11/09 A3011 RMK AO2 SLP186 T01060094
PAGN 151456Z AUTO 00000KT 10SM BKN065 10/09 A3010 RMK AO2 SLP182 T01000089 53006
PAGN 151356Z AUTO 00000KT 10SM OVC065 09/08 A3010 RMK AO2 SLP180 T00940083
PAGN 151256Z AUTO 00000KT 10SM OVC065 10/09 A3008 RMK AO2 SLP176 T01000089
PAGN 151156Z AUTO 00000KT 10SM OVC065 11/08 A3008 RMK AO2 SLP176 70001 T01060083 10128 20100 51006
PAGN 151056Z AUTO 00000KT 10SM OVC065 11/09 A3008 RMK AO2 SLP176 T01060089
PAGN 150956Z AUTO 00000KT 10SM OVC060 11/09 A3008 RMK AO2 SLP174 T01060094
PAGN 150856Z AUTO 00000KT 10SM OVC065 11/09 A3007 RMK AO2 SLP170 T01060094 401610100 53014
PAGN 150756Z AUTO 00000KT 10SM BKN065 11/09 A3005 RMK AO2 SLP164 T01110089
PAGN 150656Z AUTO 24003KT 10SM BKN060 12/09 A3004 RMK AO2 SLP161 T01220094
PAGN 150556Z AUTO 00000KT 10SM SCT070 12/09 A3003 RMK AO2 SLP157 T01220094 10161 20117 53009
PAGN 150456Z AUTO 21003KT 10SM OVC070 13/09 A3001 RMK AO2 SLP152 T01330094
PAGN 150356Z AUTO 00000KT 10SM SCT070 14/09 A3000 RMK AO2 SLP149 T01390089
PAGN 150256Z AUTO 00000KT 10SM CLR 15/10 A3000 RMK AO2 SLP147 T01500100 53003
PAGN 150156Z AUTO 15003KT 10SM BKN070 16/09 A2999 RMK AO2 SLP144 T01610089
PAGN 150056Z AUTO 00000KT 10SM OVC065 16/09 A2999 RMK AO2 SLP145 T01560089
PAGN 142356Z AUTO 00000KT 10SM OVC060 16/09 A2999 RMK AO2 SLP144 60000 T01560089 10161 20139 51004
PAGN 142256Z AUTO 35003KT 10SM OVC055 16/09 A2999 RMK AO2 SLP144 T01560094
PAGN 142156Z AUTO 35004KT 10SM OVC055 16/09 A2998 RMK AO2 SLP143 T01560094
PAGN 141956Z AUTO VRB03KT 10SM FEW028 BKN041 OVC050 16/11 A2997 RMK AO2 SLP138 T01560111
PAGN 141929Z AUTO 24003KT 10SM SCT028 OVC033 14/11 A2997 RMK AO2
PAGN 141856Z AUTO VRB04KT 10SM BKN026 OVC031 14/12 A2997 RMK AO2 RAB18E31 SLP137 P0000 T01440117
PAGN 141825Z AUTO 00000KT 7SM -RA OVC028 14/13 A2996 RMK AO2 RAB18 P0000
PAGN 141756Z AUTO 18005KT 10SM OVC030 14/12 A2996 RMK AO2 RAB23E48 SLP134 P0001 60001 T01390122 10139 20111 51014
PAGN 141738Z AUTO VRB04KT 6SM -RA BR SCT009 SCT018 OVC028 14/13 A2995 RMK AO2 RAB23 P0001
PAGN 141730Z AUTO VRB05KT 7SM -RA FEW006 BKN011 OVC024 13/12 A2995 RMK AO2 RAB23 CIG 009V013 P0000
PAGN 141709Z AUTO VRB04KT 10SM BKN006 OVC036 13/12 A2995 RMK AO2 CIG 005V010
PAGN 141656Z AUTO 21006KT 10SM FEW006 OVC036 13/12 A2995 RMK AO2 SLP130 T01330117
PAGN 141640Z AUTO VRB03KT 10SM FEW005 BKN036 13/12 A2994 RMK AO2
PAGN 141615Z AUTO VRB03KT 10SM SCT024 BKN038 BKN060 12/12 A2994 RMK AO2
PAGN 141556Z AUTO VRB04KT 9SM FEW016 OVC026 12/12 A2994 RMK AO2 RAB34E46 SLP126 P0000 T01220117